Time;durP1;ratioP1;P1;durP2;ratioP2;P2;SDS_P1;SDS_P2;PMS_P1;PMS_P2;Temp;Humidity;BMP_temperature;BMP_pressure;BME280_temperature;BME280_humidity;BME280_pressure;Samples;Min_cycle;Max_cycle;Signal;HPM_P1;HPM_P2
2021/06/14 00:00:13;;;;;;;1.87;1.77;;;;;;;24.76;57.12;99897.19;2052541;28;20033;-39
2021/06/14 00:01:13;;;;;;;3.42;2.13;;;;;;;24.75;57.20;99887.22;2053555;28;20030;-40
2021/06/14 00:02:14;;;;;;;2.47;1.77;;;;;;;24.76;56.95;99888.91;2053304;28;20061;-40
2021/06/14 00:03:14;;;;;;;2.33;2.13;;;;;;;24.76;57.13;99886.16;2051929;28;20030;-39
2021/06/14 00:04:14;;;;;;;1.93;1.80;;;;;;;24.75;57.19;99889.97;2051066;28;20027;-40
2021/06/14 00:05:21;;;;;;;1.97;1.70;;;;;;;24.75;56.96;99892.72;2052394;28;20117;-39
2021/06/14 00:06:21;;;;;;;3.35;2.08;;;;;;;24.75;57.14;99889.97;2054084;28;20445;-40
2021/06/14 00:07:23;;;;;;;2.57;2.00;;;;;;;24.76;57.20;99883.41;2046873;28;20011;-39
2021/06/14 00:08:25;;;;;;;3.03;2.03;;;;;;;24.76;57.23;99891.66;2054084;28;20105;-39
2021/06/14 00:09:26;;;;;;;2.42;2.20;;;;;;;24.75;57.24;99884.47;2052573;28;20475;-39
2021/06/14 00:10:28;;;;;;;2.43;2.23;;;;;;;24.75;56.98;99887.22;2053019;28;20502;-40
2021/06/14 00:11:28;;;;;;;2.15;1.95;;;;;;;24.75;57.01;99884.47;2051886;28;20046;-40
2021/06/14 00:12:29;;;;;;;1.93;1.70;;;;;;;24.75;57.00;99895.47;2056486;28;20024;-39
2021/06/14 00:13:29;;;;;;;2.47;1.87;;;;;;;24.75;57.03;99887.22;2053361;28;20022;-40
2021/06/14 00:14:30;;;;;;;2.47;2.20;;;;;;;24.74;57.09;99888.28;2051211;28;20412;-40
2021/06/14 00:15:31;;;;;;;3.27;2.07;;;;;;;24.75;57.20;99887.22;2047296;28;20029;-40
2021/06/14 00:16:35;;;;;;;2.72;2.40;;;;;;;24.75;57.00;99881.69;2053318;28;20030;-40
2021/06/14 00:17:35;;;;;;;2.30;1.90;;;;;;;24.75;57.02;99881.69;2052279;28;20448;-40
2021/06/14 00:18:37;;;;;;;2.40;1.87;;;;;;;24.75;57.18;99883.59;2052574;28;20088;-40
2021/06/14 00:19:37;;;;;;;2.17;1.90;;;;;;;24.75;57.20;99887.22;2052622;28;20248;-39
2021/06/14 00:20:39;;;;;;;4.13;2.30;;;;;;;24.75;57.00;99886.38;2052679;28;20193;-39
2021/06/14 00:21:39;;;;;;;;;;;;;;;24.71;57.01;99883.13;2053674;28;20030;-39
2021/06/14 00:22:44;;;;;;;2.05;1.92;;;;;;;24.73;57.29;99882.94;2050761;28;19918;-40
2021/06/14 00:23:44;;;;;;;2.92;1.90;;;;;;;24.73;57.10;99883.78;2051955;28;20052;-41
2021/06/14 00:24:45;;;;;;;2.40;2.20;;;;;;;24.73;57.15;99892.06;2050398;28;20026;-40
2021/06/14 00:25:45;;;;;;;2.47;1.73;;;;;;;24.74;57.12;99884.63;2050860;28;20033;-39
2021/06/14 00:26:46;;;;;;;2.13;1.90;;;;;;;24.73;57.12;99889.31;2053780;28;20078;-39
2021/06/14 00:27:47;;;;;;;2.00;1.80;;;;;;;24.74;57.14;99888.28;2054099;28;20022;-40
2021/06/14 00:28:47;;;;;;;2.20;1.93;;;;;;;24.74;56.87;99891.03;2051520;28;20114;-40
2021/06/14 00:29:48;;;;;;;2.57;2.00;;;;;;;24.74;57.20;99892.91;2054757;28;20115;-40
2021/06/14 00:30:51;;;;;;;1.93;1.73;;;;;;;24.73;57.17;99888.44;2053494;28;20084;-39
2021/06/14 00:31:51;;;;;;;2.10;1.90;;;;;;;24.74;57.12;99888.28;2054216;28;20029;-39
2021/06/14 00:32:52;;;;;;;2.27;1.90;;;;;;;24.75;57.31;99887.22;2050221;28;20050;-39
2021/06/14 00:33:52;;;;;;;2.33;1.97;;;;;;;24.75;57.27;99878.94;2051995;28;20490;-39
2021/06/14 00:34:53;;;;;;;2.70;2.10;;;;;;;24.74;57.11;99879.13;2052834;28;20540;-40
2021/06/14 00:35:53;;;;;;;2.37;2.07;;;;;;;24.73;57.21;99878.28;2050476;28;20050;-39
2021/06/14 00:36:54;;;;;;;2.67;1.97;;;;;;;24.73;57.42;99872.75;2053353;28;20018;-39
2021/06/14 00:37:54;;;;;;;2.13;1.97;;;;;;;24.74;57.35;99880.00;2053885;28;20027;-39
2021/06/14 00:38:55;;;;;;;2.40;2.00;;;;;;;24.73;57.18;99875.50;2052573;28;20760;-39
2021/06/14 00:39:55;;;;;;;2.10;1.93;;;;;;;24.73;57.21;99874.66;2052003;28;20102;-40
2021/06/14 00:40:56;;;;;;;2.23;2.00;;;;;;;24.74;57.29;99873.59;2054460;28;20454;-40
2021/06/14 00:41:56;;;;;;;1.90;1.80;;;;;;;24.74;57.11;99874.50;2051653;28;20022;-40
2021/06/14 00:42:57;;;;;;;1.97;1.77;;;;;;;24.74;57.37;99874.50;2050317;28;20346;-39
2021/06/14 00:43:58;;;;;;;2.53;1.90;;;;;;;24.74;57.15;99871.72;2051155;28;20109;-39
2021/06/14 00:44:58;;;;;;;2.63;2.13;;;;;;;24.74;57.15;99871.72;2052464;28;20030;-40
2021/06/14 00:45:59;;;;;;;2.03;1.60;;;;;;;24.73;57.21;99870.00;2051627;28;20054;-39
2021/06/14 00:47:00;;;;;;;2.22;1.95;;;;;;;24.74;57.30;99871.72;2051604;28;20034;-39
2021/06/14 00:48:03;;;;;;;2.93;1.97;;;;;;;24.73;57.26;99872.75;2051985;28;20046;-40
2021/06/14 00:49:03;;;;;;;2.25;2.00;;;;;;;24.73;57.34;99872.75;2050992;28;20049;-39
2021/06/14 00:50:05;;;;;;;2.80;1.67;;;;;;;24.73;57.17;99866.41;2053287;28;20033;-39
2021/06/14 00:51:08;;;;;;;2.00;1.73;;;;;;;24.72;57.29;99873.81;2050316;28;20065;-40
2021/06/14 00:52:08;;;;;;;2.05;1.73;;;;;;;24.72;57.29;99868.31;2048942;28;20144;-39
2021/06/14 00:53:12;;;;;;;2.43;2.20;;;;;;;24.72;57.20;99860.03;2051719;28;20022;-39
2021/06/14 00:54:12;;;;;;;2.72;2.22;;;;;;;24.73;57.13;99860.88;2050636;28;20036;-40
2021/06/14 00:55:17;;;;;;;2.33;2.13;;;;;;;24.72;57.03;99865.56;2052377;28;20436;-40
2021/06/14 00:56:18;;;;;;;2.70;1.70;;;;;;;24.71;57.07;99863.81;2050511;28;20033;-40
2021/06/14 00:57:19;;;;;;;2.30;1.80;;;;;;;24.73;57.18;99860.88;2053412;28;20066;-39
2021/06/14 00:58:20;;;;;;;2.77;2.00;;;;;;;24.72;57.01;99865.56;2051827;28;20033;-40
2021/06/14 00:59:20;;;;;;;2.42;1.95;;;;;;;24.72;57.24;99862.78;2052667;28;20166;-39
2021/06/14 01:00:22;;;;;;;3.23;1.90;;;;;;;24.72;57.18;99871.06;2051742;28;20098;-39
2021/06/14 01:01:22;;;;;;;2.35;1.85;;;;;;;24.72;57.13;99857.28;2059775;28;20790;-39
2021/06/14 01:02:23;;;;;;;2.47;2.00;;;;;;;24.72;57.24;99868.31;2060142;28;20450;-40
2021/06/14 01:03:24;;;;;;;3.57;2.20;;;;;;;24.73;57.29;99871.91;2050103;28;20846;-40
2021/06/14 01:04:25;;;;;;;2.30;2.10;;;;;;;24.71;57.23;99861.06;2052054;28;20070;-39
2021/06/14 01:05:29;;;;;;;2.00;1.70;;;;;;;24.71;57.40;99869.34;2053492;28;20460;-40
2021/06/14 01:06:29;;;;;;;2.10;1.90;;;;;;;24.71;57.29;99869.34;2053322;28;20029;-39
2021/06/14 01:07:30;;;;;;;2.87;2.33;;;;;;;24.72;57.29;99864.66;2054686;28;20161;-39
2021/06/14 01:08:37;;;;;;;2.10;1.90;;;;;;;24.70;57.42;99864.88;2050463;28;20069;-40
2021/06/14 01:09:37;;;;;;;1.80;1.70;;;;;;;24.71;57.47;99862.97;2050152;28;20526;-39
2021/06/14 01:10:40;;;;;;;1.90;1.77;;;;;;;24.71;57.42;99863.81;2052530;28;20457;-39
2021/06/14 01:12:09;;;;;;;2.50;1.92;;;;;;;24.70;57.15;99867.66;2052607;28;20038;-40
2021/06/14 01:13:28;;;;;;;2.13;1.92;;;;;;;24.69;57.10;99865.91;2055358;28;20435;-39
2021/06/14 01:14:47;;;;;;;2.00;1.80;;;;;;;24.68;57.32;99866.13;2045664;28;20062;-39
2021/06/14 01:16:12;;;;;;;2.10;1.90;;;;;;;24.67;57.17;99859.75;2053573;28;20060;-40
2021/06/14 01:17:37;;;;;;;2.05;1.85;;;;;;;24.67;57.38;99868.03;2050058;28;20337;-39
2021/06/14 01:18:53;;;;;;;2.42;1.92;;;;;;;24.66;57.59;99860.78;2050820;28;20255;-39
2021/06/14 01:19:56;;;;;;;2.45;1.83;;;;;;;24.67;57.40;99862.53;2060418;28;20672;-39
2021/06/14 01:21:04;;;;;;;2.03;1.83;;;;;;;24.66;57.42;99858.03;2058657;28;20092;-39
2021/06/14 01:22:42;;;;;;;2.65;1.85;;;;;;;24.66;57.57;99858.03;2050426;28;20084;-39
2021/06/14 01:24:22;;;;;;;2.55;2.05;;;;;;;24.65;57.42;99859.09;2049715;28;20333;-40
2021/06/14 01:25:29;;;;;;;2.17;1.90;;;;;;;24.65;57.59;99859.09;2046996;28;20022;-39
2021/06/14 01:26:40;;;;;;;2.08;1.88;;;;;;;24.66;57.50;99862.69;2051997;28;20028;-39
2021/06/14 01:27:45;;;;;;;2.10;1.90;;;;;;;24.66;57.56;99858.03;2051307;28;20026;-39
2021/06/14 01:28:47;;;;;;;2.35;1.98;;;;;;;24.67;57.48;99857.00;2051782;28;20030;-44
2021/06/14 01:29:48;;;;;;;2.20;1.70;;;;;;;24.66;57.34;99854.44;2052602;28;20029;-44
2021/06/14 01:30:51;;;;;;;1.85;1.75;;;;;;;24.67;57.36;99850.63;2051104;28;20121;-44
2021/06/14 01:31:54;;;;;;;2.20;2.00;;;;;;;24.66;57.33;99849.78;2049782;28;20033;-45
2021/06/14 01:32:54;;;;;;;2.22;2.00;;;;;;;24.67;57.34;99850.63;2053137;28;20303;-43
2021/06/14 01:33:56;;;;;;;3.07;2.10;;;;;;;24.67;57.38;99851.50;2052752;28;20065;-44
2021/06/14 01:34:57;;;;;;;2.75;1.80;;;;;;;24.67;57.61;99854.25;2051879;28;20026;-43
2021/06/14 01:36:22;;;;;;;2.03;1.87;;;;;;;24.66;57.34;99854.44;2052179;28;20513;-44
2021/06/14 01:37:23;;;;;;;2.20;2.00;;;;;;;24.67;57.24;99845.09;2051901;28;20030;-44
2021/06/14 01:38:27;;;;;;;2.42;1.80;;;;;;;24.67;57.55;99851.50;2051210;28;20030;-44
2021/06/14 01:39:31;;;;;;;2.40;1.80;;;;;;;24.68;57.38;99852.34;2050652;28;20026;-44
2021/06/14 01:40:34;;;;;;;2.13;1.92;;;;;;;24.67;57.56;99854.25;2052729;28;20441;-49
2021/06/14 01:41:35;;;;;;;2.22;1.80;;;;;;;24.67;57.42;99850.63;2053796;28;20028;-44
2021/06/14 01:42:36;;;;;;;2.10;1.90;;;;;;;24.66;57.49;99848.91;2052588;28;20022;-45
2021/06/14 01:43:40;;;;;;;2.47;2.10;;;;;;;24.67;57.29;99851.50;2050730;28;20085;-45
2021/06/14 01:44:43;;;;;;;2.05;1.85;;;;;;;24.68;57.49;99849.59;2047376;28;20919;-44
2021/06/14 01:45:49;;;;;;;2.15;1.77;;;;;;;24.68;57.30;99855.94;2053644;28;20022;-44
2021/06/14 01:46:54;;;;;;;2.35;2.15;;;;;;;24.68;57.23;99853.19;2050254;28;20018;-44
2021/06/14 01:47:57;;;;;;;2.47;1.80;;;;;;;24.68;57.50;99855.94;2052215;28;20027;-44
2021/06/14 01:48:59;;;;;;;2.10;1.90;;;;;;;24.68;57.45;99846.84;2052158;28;20339;-44
2021/06/14 01:50:01;;;;;;;2.47;2.00;;;;;;;24.68;57.33;99852.34;2050637;28;20439;-44
2021/06/14 01:51:04;;;;;;;2.05;1.60;;;;;;;24.67;57.25;99845.97;2051231;28;20333;-45
2021/06/14 01:52:05;;;;;;;2.67;2.00;;;;;;;24.67;57.36;99845.97;2046912;28;20062;-44
2021/06/14 01:53:06;;;;;;;2.13;1.92;;;;;;;24.68;57.12;99853.19;2046249;28;20026;-44
2021/06/14 01:54:07;;;;;;;2.70;1.80;;;;;;;24.68;57.39;99857.84;2049752;28;20411;-44
2021/06/14 01:55:12;;;;;;;2.33;1.98;;;;;;;24.68;57.39;99847.69;2050003;28;20030;-44
2021/06/14 01:56:13;;;;;;;2.00;1.90;;;;;;;24.67;57.48;99857.00;2051112;28;20030;-44
2021/06/14 01:57:15;;;;;;;2.37;2.17;;;;;;;24.68;57.24;99861.47;2053223;28;20026;-40
2021/06/14 01:58:19;;;;;;;;;;;;;;;24.64;57.25;99857.38;2050857;28;20053;-40
2021/06/14 01:59:33;;;;;;;3.58;2.15;;;;;;;24.64;57.37;99854.63;2050890;28;19985;-40
2021/06/14 02:00:39;;;;;;;1.90;1.70;;;;;;;24.65;57.56;99858.25;2049293;28;20022;-39
2021/06/14 02:01:41;;;;;;;2.13;1.92;;;;;;;24.65;57.26;99859.09;2052442;28;20026;-40
2021/06/14 02:02:44;;;;;;;1.98;1.60;;;;;;;24.65;57.43;99859.09;2051015;28;20141;-39
2021/06/14 02:03:46;;;;;;;2.30;2.08;;;;;;;24.65;57.44;99858.25;2052437;28;20041;-39
2021/06/14 02:04:49;;;;;;;3.17;1.80;;;;;;;24.65;57.37;99856.34;2052189;28;20093;-39
2021/06/14 02:05:50;;;;;;;2.03;1.83;;;;;;;24.67;57.34;99850.63;2052665;28;20456;-39
2021/06/14 02:06:53;;;;;;;1.98;1.83;;;;;;;24.65;57.43;99848.06;2052451;28;20856;-40
2021/06/14 02:07:55;;;;;;;2.63;2.05;;;;;;;24.66;57.33;99849.78;2050789;28;20067;-39
2021/06/14 02:09:01;;;;;;;2.40;1.80;;;;;;;24.66;57.19;99855.28;2053438;28;20287;-40
2021/06/14 02:10:04;;;;;;;2.13;1.63;;;;;;;24.66;57.51;99851.69;2052889;28;20038;-40
2021/06/14 02:11:05;;;;;;;2.47;2.28;;;;;;;24.66;57.39;99858.03;2053259;28;20330;-39
2021/06/14 02:12:08;;;;;;;2.33;2.00;;;;;;;24.65;57.43;99859.09;2055189;28;20022;-39
2021/06/14 02:13:09;;;;;;;2.70;2.03;;;;;;;24.66;57.32;99852.53;2048634;28;20094;-40
2021/06/14 02:14:12;;;;;;;;;;;;;;;24.63;57.46;99863.94;2052860;28;20018;-40
2021/06/14 02:15:15;;;;;;;2.13;1.92;;;;;;;24.63;57.59;99850.16;2052546;28;20469;-39
2021/06/14 02:16:17;;;;;;;3.17;2.17;;;;;;;24.65;57.55;99859.09;2053906;28;20026;-40
2021/06/14 02:17:20;;;;;;;;;;;;;;;24.62;57.51;99859.50;2048659;28;20026;-39
2021/06/14 02:18:24;;;;;;;2.03;1.83;;;;;;;24.62;57.52;99859.50;2052813;28;19913;-39
2021/06/14 02:19:24;;;;;;;3.55;2.22;;;;;;;24.62;57.35;99853.97;2051171;28;20038;-40
2021/06/14 02:20:25;;;;;;;2.23;2.03;;;;;;;24.64;57.51;99860.13;2051376;28;20393;-39
2021/06/14 02:21:26;;;;;;;2.33;2.03;;;;;;;24.64;57.63;99862.88;2051077;28;20092;-40
2021/06/14 02:22:27;;;;;;;1.93;1.50;;;;;;;24.64;57.51;99862.88;2050386;28;20090;-40
2021/06/14 02:23:28;;;;;;;2.63;1.70;;;;;;;24.64;57.57;99857.38;2049534;28;20328;-39
2021/06/14 02:24:28;;;;;;;1.93;1.60;;;;;;;24.64;57.52;99864.78;2049945;28;20031;-40
2021/06/14 02:25:29;;;;;;;2.70;2.13;;;;;;;24.64;57.69;99856.53;2054465;28;20034;-40
2021/06/14 02:26:29;;;;;;;1.50;1.40;;;;;;;24.64;57.63;99857.38;2051909;28;20040;-39
2021/06/14 02:27:30;;;;;;;2.10;1.90;;;;;;;24.65;57.63;99858.25;2052387;28;20030;-39
2021/06/14 02:28:31;;;;;;;2.10;1.60;;;;;;;24.65;57.65;99866.53;2052512;28;20113;-39
2021/06/14 02:29:31;;;;;;;2.67;2.43;;;;;;;24.64;57.42;99862.88;2052912;28;20425;-39
2021/06/14 02:30:32;;;;;;;1.93;1.73;;;;;;;24.64;57.58;99868.41;2054509;28;20034;-39
2021/06/14 02:31:33;;;;;;;3.43;1.87;;;;;;;24.64;57.51;99873.91;2051015;28;20020;-40
2021/06/14 02:32:34;;;;;;;3.60;2.22;;;;;;;24.65;57.66;99864.63;2051452;28;20298;-40
2021/06/14 02:33:34;;;;;;;1.73;1.60;;;;;;;24.64;57.35;99867.53;2049410;28;20054;-39
2021/06/14 02:34:37;;;;;;;2.10;1.90;;;;;;;24.64;57.59;99868.41;2051502;28;20487;-40
2021/06/14 02:35:37;;;;;;;2.05;1.77;;;;;;;24.64;57.74;99865.63;2051721;28;20497;-39
2021/06/14 02:36:38;;;;;;;2.47;2.13;;;;;;;24.65;57.51;99872.88;2051427;28;20485;-39
2021/06/14 02:37:45;;;;;;;2.28;1.83;;;;;;;24.65;57.51;99866.53;2051435;28;20369;-39
2021/06/14 02:38:46;;;;;;;2.65;1.88;;;;;;;24.64;57.41;99873.91;2052223;28;20034;-40
2021/06/14 02:39:50;;;;;;;1.67;1.58;;;;;;;24.65;57.54;99869.28;2051505;28;20033;-40
2021/06/14 02:40:51;;;;;;;1.75;1.65;;;;;;;24.64;57.73;99865.63;2050668;28;20074;-39
2021/06/14 02:41:52;;;;;;;2.07;1.87;;;;;;;24.64;57.76;99865.63;2052502;28;20740;-40
2021/06/14 02:42:53;;;;;;;2.60;2.07;;;;;;;24.63;57.72;99869.44;2053152;28;20027;-39
2021/06/14 02:43:54;;;;;;;1.70;1.60;;;;;;;24.64;57.45;99867.53;2050515;28;20030;-39
2021/06/14 02:44:55;;;;;;;2.30;1.77;;;;;;;24.64;57.53;99873.91;2050684;28;20077;-39
2021/06/14 02:45:56;;;;;;;2.22;1.90;;;;;;;24.63;57.62;99866.69;2053727;28;20037;-40
2021/06/14 02:47:07;;;;;;;1.90;1.67;;;;;;;24.63;57.59;99872.22;2051581;28;20041;-40
2021/06/14 02:48:09;;;;;;;2.20;2.00;;;;;;;24.63;57.67;99874.97;2051761;28;20109;-40
2021/06/14 02:49:12;;;;;;;2.00;1.80;;;;;;;24.63;57.68;99872.22;2052171;28;20026;-40
2021/06/14 02:50:16;;;;;;;2.40;2.10;;;;;;;24.63;57.66;99874.13;2046670;28;20124;-39
2021/06/14 02:51:19;;;;;;;2.25;1.50;;;;;;;24.63;57.59;99877.72;2048881;28;20112;-40
2021/06/14 02:52:20;;;;;;;2.13;1.77;;;;;;;24.62;57.59;99870.50;2050492;28;20506;-39
2021/06/14 02:53:23;;;;;;;2.05;1.70;;;;;;;24.64;57.82;99878.56;2055364;28;20476;-40
2021/06/14 02:54:29;;;;;;;1.77;1.67;;;;;;;24.64;57.68;99876.66;2051619;28;20088;-40
2021/06/14 02:55:34;;;;;;;1.90;1.70;;;;;;;24.63;57.58;99872.22;2056930;28;20144;-39
2021/06/14 02:56:37;;;;;;;1.90;1.67;;;;;;;24.63;57.74;99872.22;2057982;28;20133;-40
2021/06/14 02:57:38;;;;;;;2.55;1.77;;;;;;;24.64;57.67;99878.56;2051730;28;20140;-40
2021/06/14 02:58:40;;;;;;;2.42;1.98;;;;;;;24.64;57.44;99879.41;2049893;28;20113;-39
2021/06/14 02:59:45;;;;;;;2.45;1.70;;;;;;;24.61;57.59;99879.81;2051219;28;20041;-40
2021/06/14 03:00:46;;;;;;;1.77;1.60;;;;;;;24.62;57.56;99875.16;2053152;28;20037;-40
2021/06/14 03:01:48;;;;;;;2.00;1.80;;;;;;;24.63;57.66;99876.88;2050729;28;20035;-39
2021/06/14 03:02:50;;;;;;;2.10;1.90;;;;;;;24.62;57.79;99878.78;2052025;28;20722;-40
2021/06/14 03:03:52;;;;;;;2.03;1.80;;;;;;;24.62;57.83;99881.53;2050966;28;20438;-39
2021/06/14 03:04:53;;;;;;;1.80;1.70;;;;;;;24.62;57.78;99877.91;2053256;28;20090;-39
2021/06/14 03:05:55;;;;;;;2.13;1.90;;;;;;;24.62;57.62;99881.53;2054439;28;20643;-40
2021/06/14 03:06:55;;;;;;;2.30;2.10;;;;;;;24.62;57.75;99881.53;2051157;28;20116;-40
2021/06/14 03:07:58;;;;;;;2.20;2.00;;;;;;;24.63;57.85;99880.47;2048238;28;20058;-39
2021/06/14 03:09:02;;;;;;;2.13;1.92;;;;;;;24.62;57.57;99887.03;2051241;28;20022;-40
2021/06/14 03:10:07;;;;;;;2.22;2.08;;;;;;;24.61;57.72;99885.31;2052044;28;20026;-40
2021/06/14 03:11:08;;;;;;;2.72;1.77;;;;;;;24.62;57.60;99880.66;2052613;28;20030;-39
2021/06/14 03:12:09;;;;;;;2.40;1.65;;;;;;;24.62;57.66;99888.94;2054757;28;20455;-39
2021/06/14 03:13:10;;;;;;;2.07;1.90;;;;;;;24.63;57.79;99883.22;2051731;28;20026;-40
2021/06/14 03:14:13;;;;;;;2.00;1.80;;;;;;;24.62;57.82;99881.53;2050625;28;20289;-39
2021/06/14 03:15:15;;;;;;;1.88;1.73;;;;;;;24.60;57.85;99880.88;2053693;28;20048;-40
2021/06/14 03:16:19;;;;;;;1.92;1.55;;;;;;;24.61;57.61;99882.56;2051670;28;20845;-40
2021/06/14 03:17:22;;;;;;;1.98;1.60;;;;;;;24.60;57.83;99880.88;2051936;28;20034;-40
2021/06/14 03:18:25;;;;;;;2.20;2.00;;;;;;;24.60;57.74;99884.47;2043733;28;20031;-40
2021/06/14 03:19:26;;;;;;;2.45;2.22;;;;;;;24.60;57.86;99878.97;2033773;28;20031;-40
2021/06/14 03:20:28;;;;;;;2.33;1.90;;;;;;;24.60;57.98;99889.13;2035353;28;20692;-40
2021/06/14 03:21:34;;;;;;;2.55;2.08;;;;;;;24.60;57.95;99883.63;2051929;28;20030;-39
2021/06/14 03:22:37;;;;;;;4.32;1.63;;;;;;;24.60;57.84;99891.91;2051288;28;20028;-39
2021/06/14 03:23:38;;;;;;;2.70;2.10;;;;;;;24.60;57.86;99889.13;2042704;28;20074;-39
2021/06/14 03:24:39;;;;;;;1.85;1.75;;;;;;;24.60;57.61;99889.97;2046725;28;20029;-40
2021/06/14 03:25:41;;;;;;;2.35;2.03;;;;;;;24.60;57.68;99889.97;2050252;28;20026;-39
2021/06/14 03:26:44;;;;;;;1.65;1.50;;;;;;;24.60;57.90;99894.66;2052485;28;20037;-40
2021/06/14 03:27:45;;;;;;;2.20;1.73;;;;;;;24.59;57.79;99893.78;2050602;28;20045;-39
2021/06/14 03:28:47;;;;;;;2.03;1.75;;;;;;;24.60;57.97;99895.50;2053050;28;20414;-41
2021/06/14 03:29:52;;;;;;;2.15;1.70;;;;;;;24.60;57.77;99894.66;2050693;28;20128;-40
2021/06/14 03:30:53;;;;;;;2.22;2.00;;;;;;;24.59;57.85;99893.78;2048530;28;20401;-40
2021/06/14 03:31:55;;;;;;;2.10;1.90;;;;;;;24.58;57.73;99894.81;2054115;28;20585;-40
2021/06/14 03:32:56;;;;;;;;;;;;;;;24.55;57.95;99897.13;2053069;28;20502;-40
2021/06/14 03:33:57;;;;;;;2.13;1.73;;;;;;;24.56;57.97;99893.31;2052505;28;20414;-40
2021/06/14 03:34:58;;;;;;;1.70;1.60;;;;;;;24.57;57.89;99895.00;2054444;28;20591;-39
2021/06/14 03:35:59;;;;;;;2.92;1.98;;;;;;;24.57;58.09;99889.50;2053112;28;20034;-39
2021/06/14 03:36:59;;;;;;;2.23;2.03;;;;;;;24.57;57.99;99901.41;2054989;28;20860;-39
2021/06/14 03:38:00;;;;;;;2.23;1.93;;;;;;;24.57;57.96;99895.00;2049436;28;20445;-40
2021/06/14 03:39:02;;;;;;;1.90;1.70;;;;;;;24.57;57.96;99892.25;2047136;28;20050;-39
2021/06/14 03:40:04;;;;;;;1.48;1.38;;;;;;;24.57;58.05;99895.88;2049231;28;20090;-40
2021/06/14 03:41:04;;;;;;;;;;;;;;;24.54;58.01;99889.88;2048140;28;20023;-40
2021/06/14 03:42:06;;;;;;;2.20;2.00;;;;;;;24.54;57.96;99899.00;2052765;28;19914;-40
2021/06/14 03:43:07;;;;;;;2.65;1.98;;;;;;;24.55;57.94;99891.59;2052006;28;20018;-39
2021/06/14 03:44:08;;;;;;;1.93;1.73;;;;;;;24.56;58.10;99898.81;2054028;28;20034;-40
2021/06/14 03:45:10;;;;;;;3.00;2.17;;;;;;;24.55;58.10;99894.38;2052117;28;20034;-39
2021/06/14 03:46:11;;;;;;;1.88;1.70;;;;;;;24.57;58.00;99900.50;2051376;28;20026;-39
2021/06/14 03:47:11;;;;;;;1.80;1.67;;;;;;;24.56;58.13;99899.66;2053095;28;20482;-39
2021/06/14 03:48:12;;;;;;;1.90;1.70;;;;;;;24.56;58.04;99901.56;2048617;28;20027;-39
2021/06/14 03:49:12;;;;;;;2.20;1.77;;;;;;;24.56;57.96;99898.81;2051958;28;20066;-40
2021/06/14 03:50:13;;;;;;;1.53;1.43;;;;;;;24.57;57.86;99906.03;2052342;28;20311;-39
2021/06/14 03:51:14;;;;;;;1.90;1.47;;;;;;;24.56;57.96;99898.81;2051518;28;20054;-39
2021/06/14 03:52:14;;;;;;;3.33;1.70;;;;;;;24.55;57.86;99897.13;2046629;28;20033;-40
2021/06/14 03:53:16;;;;;;;1.77;1.67;;;;;;;24.56;58.03;99904.34;2053152;28;20030;-39
2021/06/14 03:54:16;;;;;;;2.30;1.80;;;;;;;24.56;58.19;99915.34;2046649;28;20056;-39
2021/06/14 03:55:17;;;;;;;2.03;1.80;;;;;;;24.56;58.02;99904.34;2051673;28;20038;-39
2021/06/14 03:56:17;;;;;;;2.67;1.60;;;;;;;24.56;57.95;99909.84;2052174;28;20344;-40
2021/06/14 03:57:17;;;;;;;2.30;1.80;;;;;;;24.56;57.88;99909.84;2047276;28;20054;-39
2021/06/14 03:58:18;;;;;;;2.43;1.60;;;;;;;24.56;57.99;99909.84;2050979;28;20045;-40
2021/06/14 03:59:18;;;;;;;2.03;1.80;;;;;;;24.55;57.94;99905.38;2043777;28;20424;-40
2021/06/14 04:00:22;;;;;;;3.10;2.20;;;;;;;24.57;57.97;99911.53;2045531;28;20026;-40
2021/06/14 04:01:24;;;;;;;2.38;1.70;;;;;;;24.56;57.90;99910.69;2060596;28;20119;-40
2021/06/14 04:02:24;;;;;;;;;;;;;;;24.51;58.08;99902.13;2060959;28;20038;-40
2021/06/14 04:03:27;;;;;;;2.22;1.90;;;;;;;24.52;58.04;99909.38;2052813;28;20387;-40
2021/06/14 04:05:43;;;;;;;1.85;1.75;;;;;;;24.52;58.15;99909.38;2052741;28;20326;-39
2021/06/14 04:06:44;;;;;;;2.50;2.07;;;;;;;24.54;58.13;99911.94;2061259;28;20529;-39
2021/06/14 04:07:44;;;;;;;1.80;1.67;;;;;;;24.54;58.03;99912.78;2061802;28;20065;-39
2021/06/14 04:08:44;;;;;;;1.90;1.80;;;;;;;24.55;57.98;99913.66;2053796;28;20077;-39
2021/06/14 04:09:45;;;;;;;2.00;1.80;;;;;;;24.54;57.92;99907.25;2053086;28;20045;-40
2021/06/14 04:10:45;;;;;;;2.13;1.73;;;;;;;24.53;57.93;99904.72;2051437;28;20034;-40
2021/06/14 04:11:46;;;;;;;2.43;1.93;;;;;;;24.54;58.16;99910.03;2053013;28;20030;-39
2021/06/14 04:12:46;;;;;;;2.27;2.07;;;;;;;24.54;58.03;99909.16;2054078;28;20384;-39
2021/06/14 04:13:49;;;;;;;1.83;1.73;;;;;;;24.54;58.04;99909.16;2052894;28;20022;-40
2021/06/14 04:14:50;;;;;;;1.95;1.75;;;;;;;24.54;57.91;99903.66;2051273;28;20130;-39
2021/06/14 04:15:51;;;;;;;3.07;2.10;;;;;;;24.53;57.89;99910.22;2054066;28;20034;-39
2021/06/14 04:16:51;;;;;;;2.00;1.60;;;;;;;24.55;58.10;99908.16;2051210;28;20018;-40
2021/06/14 04:17:52;;;;;;;1.93;1.60;;;;;;;24.54;58.11;99917.44;2053489;28;20535;-40
2021/06/14 04:18:52;;;;;;;2.47;1.50;;;;;;;24.53;58.09;99910.22;2047979;28;20030;-40
2021/06/14 04:19:53;;;;;;;2.17;1.97;;;;;;;24.54;58.01;99911.94;2053153;28;20159;-39
2021/06/14 04:20:53;;;;;;;1.77;1.67;;;;;;;24.52;58.20;99911.25;2051645;28;20118;-40
2021/06/14 04:21:53;;;;;;;3.90;1.83;;;;;;;24.54;58.10;99918.28;2052912;28;20038;-40
2021/06/14 04:22:54;;;;;;;2.07;1.87;;;;;;;24.54;58.19;99911.94;2051181;28;20113;-40
2021/06/14 04:23:54;;;;;;;1.80;1.70;;;;;;;24.54;58.24;99911.94;2053070;28;20105;-40
2021/06/14 04:24:55;;;;;;;1.77;1.60;;;;;;;24.54;58.21;99917.44;2052556;28;20604;-39
2021/06/14 04:25:55;;;;;;;2.83;1.70;;;;;;;24.52;58.30;99911.25;2053162;28;20034;-39
2021/06/14 04:26:56;;;;;;;1.77;1.67;;;;;;;24.53;58.03;99910.22;2052761;28;20034;-40
2021/06/14 04:27:57;;;;;;;1.93;1.77;;;;;;;24.53;58.30;99910.22;2053115;28;20046;-40
2021/06/14 04:28:58;;;;;;;1.80;1.70;;;;;;;24.52;58.16;99903.00;2050221;28;20018;-40
2021/06/14 04:29:58;;;;;;;1.55;1.42;;;;;;;24.53;58.15;99913.00;2053977;28;20026;-40
2021/06/14 04:30:59;;;;;;;1.60;1.50;;;;;;;24.52;58.33;99914.00;2050935;28;20299;-43
2021/06/14 04:31:59;;;;;;;2.43;2.23;;;;;;;24.52;58.08;99917.66;2053722;28;20380;-39
2021/06/14 04:33:00;;;;;;;2.50;2.03;;;;;;;24.52;58.23;99914.00;2050772;28;20361;-39
2021/06/14 04:34:00;;;;;;;3.63;1.90;;;;;;;24.53;58.17;99921.25;2050568;28;20109;-40
2021/06/14 04:35:01;;;;;;;1.70;1.60;;;;;;;24.52;58.26;99914.00;2054481;28;20028;-39
2021/06/14 04:36:03;;;;;;;2.13;1.90;;;;;;;24.52;58.16;99922.28;2050592;28;20018;-39
2021/06/14 04:37:03;;;;;;;;;;;;;;;24.49;58.34;99922.66;2053862;28;20275;-39
2021/06/14 04:38:04;;;;;;;3.08;1.60;;;;;;;24.50;58.24;99922.50;2052361;28;19918;-40
2021/06/14 04:39:05;;;;;;;1.43;1.33;;;;;;;24.50;58.31;99925.25;2053412;28;20318;-40
2021/06/14 04:40:07;;;;;;;2.78;2.20;;;;;;;24.51;58.33;99923.34;2053483;28;20014;-40
2021/06/14 04:41:07;;;;;;;1.70;1.60;;;;;;;24.51;58.26;99924.19;2051710;28;20049;-40
2021/06/14 04:42:08;;;;;;;1.93;1.60;;;;;;;24.50;58.32;99921.59;2053485;28;20491;-40
2021/06/14 04:43:08;;;;;;;2.30;2.00;;;;;;;24.51;58.26;99923.34;2047702;28;20500;-39
2021/06/14 04:44:09;;;;;;;1.93;1.60;;;;;;;24.51;58.14;99920.59;2044838;28;20023;-39
2021/06/14 04:45:10;;;;;;;2.13;1.93;;;;;;;24.51;58.29;99917.81;2047553;28;20413;-39
2021/06/14 04:46:11;;;;;;;1.83;1.67;;;;;;;24.51;58.09;99915.06;2046756;28;20150;-39
2021/06/14 04:47:11;;;;;;;2.60;2.00;;;;;;;24.51;58.17;99920.59;2052840;28;20589;-39
2021/06/14 04:48:11;;;;;;;1.80;1.70;;;;;;;24.51;58.27;99917.81;2050932;28;20019;-39
2021/06/14 04:49:12;;;;;;;1.67;1.50;;;;;;;24.52;58.21;99919.53;2052479;28;20066;-39
2021/06/14 04:50:12;;;;;;;1.87;1.77;;;;;;;24.51;58.29;99915.06;2053280;28;20428;-39
2021/06/14 04:51:13;;;;;;;1.73;1.47;;;;;;;24.51;58.17;99915.06;2051667;28;20140;-40
2021/06/14 04:52:13;;;;;;;2.07;1.87;;;;;;;24.51;58.18;99920.59;2052038;28;20252;-40
2021/06/14 04:53:14;;;;;;;2.13;1.90;;;;;;;24.51;58.38;99915.06;2052530;28;20028;-40
2021/06/14 04:54:14;;;;;;;1.80;1.70;;;;;;;24.50;58.19;99922.50;2054204;28;20116;-39
2021/06/14 04:55:15;;;;;;;2.57;1.70;;;;;;;24.50;58.18;99916.09;2052824;28;20310;-41